sensor_id;sensor_type;location;lat;lon;timestamp;pressure;altitude;pressure_sealevel;temperature;humidity
51083;BME280;37131;42.694;23.350;2023-02-20T00:00:39;95781.59;;;10.52;54.16
51083;BME280;37131;42.694;23.350;2023-02-20T00:03:05;95772.41;;;10.50;54.05
51083;BME280;37131;42.694;23.350;2023-02-20T00:05:31;95779.06;;;10.39;54.85
51083;BME280;37131;42.694;23.350;2023-02-20T00:07:56;95783.47;;;10.45;54.46
51083;BME280;37131;42.694;23.350;2023-02-20T00:10:22;95780.25;;;10.43;55.21
51083;BME280;37131;42.694;23.350;2023-02-20T00:12:49;95764.16;;;10.14;56.12
51083;BME280;37131;42.694;23.350;2023-02-20T00:15:15;95775.88;;;10.37;55.71
51083;BME280;37131;42.694;23.350;2023-02-20T00:17:44;95776.06;;;10.29;56.40
51083;BME280;37131;42.694;23.350;2023-02-20T00:20:13;95772.09;;;10.26;55.91
51083;BME280;37131;42.694;23.350;2023-02-20T00:22:39;95774.50;;;10.28;56.24
51083;BME280;37131;42.694;23.350;2023-02-20T00:25:05;95779.38;;;10.17;57.13
51083;BME280;37131;42.694;23.350;2023-02-20T00:27:30;95778.91;;;10.27;56.49
51083;BME280;37131;42.694;23.350;2023-02-20T00:29:55;95777.19;;;10.08;57.16
51083;BME280;37131;42.694;23.350;2023-02-20T00:32:21;95771.16;;;10.14;57.37
51083;BME280;37131;42.694;23.350;2023-02-20T00:34:46;95770.06;;;10.28;56.82
51083;BME280;37131;42.694;23.350;2023-02-20T00:37:11;95780.22;;;10.05;57.73
51083;BME280;37131;42.694;23.350;2023-02-20T00:39:37;95773.97;;;10.12;58.07
51083;BME280;37131;42.694;23.350;2023-02-20T00:42:02;95763.75;;;10.11;58.25
51083;BME280;37131;42.694;23.350;2023-02-20T00:44:28;95762.09;;;10.23;57.88
51083;BME280;37131;42.694;23.350;2023-02-20T00:46:53;95769.56;;;10.13;58.00
51083;BME280;37131;42.694;23.350;2023-02-20T00:49:19;95772.03;;;10.01;58.75
51083;BME280;37131;42.694;23.350;2023-02-20T00:51:44;95772.38;;;10.11;58.69
51083;BME280;37131;42.694;23.350;2023-02-20T00:54:09;95771.97;;;10.08;58.57
51083;BME280;37131;42.694;23.350;2023-02-20T00:56:35;95783.59;;;10.05;58.43
51083;BME280;37131;42.694;23.350;2023-02-20T00:59:00;95783.66;;;9.92;59.76
51083;BME280;37131;42.694;23.350;2023-02-20T01:01:26;95798.09;;;9.94;59.53
51083;BME280;37131;42.694;23.350;2023-02-20T01:03:51;95799.16;;;9.66;60.51
51083;BME280;37131;42.694;23.350;2023-02-20T01:06:17;95805.00;;;9.69;60.65
51083;BME280;37131;42.694;23.350;2023-02-20T01:08:42;95817.34;;;9.80;60.28
51083;BME280;37131;42.694;23.350;2023-02-20T01:11:08;95810.34;;;9.87;60.25
51083;BME280;37131;42.694;23.350;2023-02-20T01:13:33;95808.19;;;9.71;61.23
51083;BME280;37131;42.694;23.350;2023-02-20T01:15:58;95809.81;;;9.58;61.51
51083;BME280;37131;42.694;23.350;2023-02-20T01:18:24;95823.00;;;9.63;61.47
51083;BME280;37131;42.694;23.350;2023-02-20T01:20:50;95818.63;;;9.57;61.66
51083;BME280;37131;42.694;23.350;2023-02-20T01:23:15;95826.41;;;9.71;61.55
51083;BME280;37131;42.694;23.350;2023-02-20T01:25:41;95826.66;;;9.42;62.22
51083;BME280;37131;42.694;23.350;2023-02-20T01:28:06;95845.66;;;9.56;62.39
51083;BME280;37131;42.694;23.350;2023-02-20T01:30:31;95848.47;;;9.55;62.87
51083;BME280;37131;42.694;23.350;2023-02-20T01:32:57;95841.25;;;9.57;62.56
51083;BME280;37131;42.694;23.350;2023-02-20T01:35:22;95841.81;;;9.79;62.02
51083;BME280;37131;42.694;23.350;2023-02-20T01:37:48;95826.03;;;9.67;61.80
51083;BME280;37131;42.694;23.350;2023-02-20T01:40:18;95836.78;;;9.84;61.64
51083;BME280;37131;42.694;23.350;2023-02-20T01:42:46;95833.63;;;9.62;62.23
51083;BME280;37131;42.694;23.350;2023-02-20T01:47:43;95847.22;;;9.84;62.36
51083;BME280;37131;42.694;23.350;2023-02-20T01:50:09;95842.81;;;9.71;62.86
51083;BME280;37131;42.694;23.350;2023-02-20T01:52:36;95833.59;;;9.75;62.87
51083;BME280;37131;42.694;23.350;2023-02-20T01:55:10;95834.38;;;9.89;62.00
51083;BME280;37131;42.694;23.350;2023-02-20T01:57:40;95843.03;;;9.56;64.00
51083;BME280;37131;42.694;23.350;2023-02-20T02:00:13;95838.22;;;9.73;63.27
51083;BME280;37131;42.694;23.350;2023-02-20T02:02:43;95847.63;;;9.61;63.71
51083;BME280;37131;42.694;23.350;2023-02-20T02:05:10;95844.84;;;9.56;64.07
51083;BME280;37131;42.694;23.350;2023-02-20T02:07:36;95849.25;;;9.62;64.40
51083;BME280;37131;42.694;23.350;2023-02-20T02:12:30;95838.63;;;9.70;64.33
51083;BME280;37131;42.694;23.350;2023-02-20T02:14:55;95827.06;;;9.39;64.79
51083;BME280;37131;42.694;23.350;2023-02-20T02:23:16;95846.28;;;9.25;64.31
51083;BME280;37131;42.694;23.350;2023-02-20T02:31:20;95871.44;;;8.84;65.62
51083;BME280;37131;42.694;23.350;2023-02-20T02:34:02;95876.47;;;8.92;65.30
51083;BME280;37131;42.694;23.350;2023-02-20T02:39:53;95872.78;;;8.60;65.23
51083;BME280;37131;42.694;23.350;2023-02-20T02:45:18;95871.38;;;8.51;65.63
51083;BME280;37131;42.694;23.350;2023-02-20T02:47:54;95875.16;;;8.48;66.40
51083;BME280;37131;42.694;23.350;2023-02-20T02:50:33;95873.22;;;8.64;66.15
51083;BME280;37131;42.694;23.350;2023-02-20T02:53:02;95883.09;;;8.40;66.93
51083;BME280;37131;42.694;23.350;2023-02-20T02:55:30;95887.09;;;8.42;67.15
51083;BME280;37131;42.694;23.350;2023-02-20T02:57:58;95891.75;;;8.47;66.94
51083;BME280;37131;42.694;23.350;2023-02-20T03:00:41;95901.19;;;8.55;66.61
51083;BME280;37131;42.694;23.350;2023-02-20T03:03:23;95916.16;;;8.46;67.06
51083;BME280;37131;42.694;23.350;2023-02-20T03:11:12;95920.47;;;8.39;67.79
51083;BME280;37131;42.694;23.350;2023-02-20T03:13:47;95912.06;;;8.37;68.38
51083;BME280;37131;42.694;23.350;2023-02-20T03:19:15;95916.59;;;8.28;68.43
51083;BME280;37131;42.694;23.350;2023-02-20T03:21:45;95912.56;;;8.19;68.97
51083;BME280;37131;42.694;23.350;2023-02-20T03:24:13;95917.09;;;8.03;69.56
51083;BME280;37131;42.694;23.350;2023-02-20T03:26:42;95924.97;;;8.17;68.80
51083;BME280;37131;42.694;23.350;2023-02-20T03:29:16;95928.16;;;8.19;68.51
51083;BME280;37131;42.694;23.350;2023-02-20T03:31:57;95940.13;;;8.13;68.14
51083;BME280;37131;42.694;23.350;2023-02-20T03:34:43;95946.94;;;8.14;68.55
51083;BME280;37131;42.694;23.350;2023-02-20T03:37:30;95957.63;;;8.04;68.08
51083;BME280;37131;42.694;23.350;2023-02-20T03:40:17;95945.13;;;8.15;67.88
51083;BME280;37131;42.694;23.350;2023-02-20T03:43:08;95936.41;;;8.22;67.41
51083;BME280;37131;42.694;23.350;2023-02-20T03:45:59;95949.56;;;8.21;67.14
51083;BME280;37131;42.694;23.350;2023-02-20T03:51:01;95950.31;;;8.15;67.04
51083;BME280;37131;42.694;23.350;2023-02-20T03:53:37;95929.72;;;8.13;66.92
51083;BME280;37131;42.694;23.350;2023-02-20T03:56:07;95932.63;;;7.97;67.25
51083;BME280;37131;42.694;23.350;2023-02-20T03:58:36;95943.88;;;8.04;67.41
51083;BME280;37131;42.694;23.350;2023-02-20T04:01:05;95945.47;;;8.05;66.88
51083;BME280;37131;42.694;23.350;2023-02-20T04:03:36;95928.00;;;7.92;66.99
51083;BME280;37131;42.694;23.350;2023-02-20T04:06:05;95945.16;;;7.86;67.50
51083;BME280;37131;42.694;23.350;2023-02-20T04:08:35;95948.59;;;7.94;67.48
51083;BME280;37131;42.694;23.350;2023-02-20T04:11:07;95951.78;;;7.96;67.59
51083;BME280;37131;42.694;23.350;2023-02-20T04:13:34;95962.56;;;7.93;68.02
51083;BME280;37131;42.694;23.350;2023-02-20T04:16:01;95953.50;;;8.10;66.68
51083;BME280;37131;42.694;23.350;2023-02-20T04:18:27;95959.69;;;8.09;66.68
51083;BME280;37131;42.694;23.350;2023-02-20T04:20:55;95968.00;;;7.98;66.97
51083;BME280;37131;42.694;23.350;2023-02-20T04:23:24;95955.16;;;7.89;67.60
51083;BME280;37131;42.694;23.350;2023-02-20T04:28:25;95972.16;;;7.92;67.68
51083;BME280;37131;42.694;23.350;2023-02-20T04:30:51;95957.34;;;7.86;68.02
51083;BME280;37131;42.694;23.350;2023-02-20T04:33:17;95971.97;;;7.94;68.06
51083;BME280;37131;42.694;23.350;2023-02-20T04:35:43;95972.13;;;7.85;68.20
51083;BME280;37131;42.694;23.350;2023-02-20T04:38:09;95955.31;;;7.81;68.98
51083;BME280;37131;42.694;23.350;2023-02-20T04:40:35;95954.66;;;7.72;69.00
51083;BME280;37131;42.694;23.350;2023-02-20T04:43:00;95956.69;;;7.77;68.88
51083;BME280;37131;42.694;23.350;2023-02-20T04:45:26;95959.50;;;7.82;68.37
51083;BME280;37131;42.694;23.350;2023-02-20T04:47:51;95970.88;;;7.81;68.78
51083;BME280;37131;42.694;23.350;2023-02-20T04:50:43;95967.94;;;7.63;68.83
51083;BME280;37131;42.694;23.350;2023-02-20T04:53:08;95976.00;;;7.75;68.66
51083;BME280;37131;42.694;23.350;2023-02-20T04:55:34;95987.22;;;7.75;67.66
51083;BME280;37131;42.694;23.350;2023-02-20T04:57:59;95974.41;;;7.73;67.43
51083;BME280;37131;42.694;23.350;2023-02-20T05:00:25;95990.34;;;7.70;66.87
51083;BME280;37131;42.694;23.350;2023-02-20T05:02:51;95990.19;;;7.50;67.78
51083;BME280;37131;42.694;23.350;2023-02-20T05:05:20;96001.38;;;7.51;66.98
51083;BME280;37131;42.694;23.350;2023-02-20T05:07:46;96000.88;;;7.62;65.54
51083;BME280;37131;42.694;23.350;2023-02-20T05:10:16;96002.22;;;7.58;64.92
51083;BME280;37131;42.694;23.350;2023-02-20T05:12:41;96012.63;;;7.58;64.78
51083;BME280;37131;42.694;23.350;2023-02-20T05:15:07;96001.69;;;7.63;64.10
51083;BME280;37131;42.694;23.350;2023-02-20T05:17:32;96003.84;;;7.59;62.52
51083;BME280;37131;42.694;23.350;2023-02-20T05:19:58;96000.81;;;7.55;62.54
51083;BME280;37131;42.694;23.350;2023-02-20T05:22:23;95998.31;;;7.69;61.67
51083;BME280;37131;42.694;23.350;2023-02-20T05:24:50;96008.09;;;7.45;62.26
51083;BME280;37131;42.694;23.350;2023-02-20T05:27:17;95997.31;;;7.42;61.35
51083;BME280;37131;42.694;23.350;2023-02-20T05:29:47;96005.09;;;7.42;60.92
51083;BME280;37131;42.694;23.350;2023-02-20T05:32:13;96023.09;;;7.50;61.46
51083;BME280;37131;42.694;23.350;2023-02-20T05:34:41;96031.63;;;7.44;61.45
51083;BME280;37131;42.694;23.350;2023-02-20T05:37:06;96053.94;;;7.38;62.19
51083;BME280;37131;42.694;23.350;2023-02-20T05:39:31;96040.84;;;7.46;61.75
51083;BME280;37131;42.694;23.350;2023-02-20T05:41:57;96057.53;;;7.37;62.23
51083;BME280;37131;42.694;23.350;2023-02-20T05:44:22;96051.09;;;7.33;62.85
51083;BME280;37131;42.694;23.350;2023-02-20T05:46:47;96051.53;;;7.36;62.65
51083;BME280;37131;42.694;23.350;2023-02-20T05:49:13;96052.84;;;7.47;62.92
51083;BME280;37131;42.694;23.350;2023-02-20T05:51:40;96055.53;;;7.39;64.03
51083;BME280;37131;42.694;23.350;2023-02-20T05:54:06;96032.09;;;7.47;63.36
51083;BME280;37131;42.694;23.350;2023-02-20T05:56:31;96046.78;;;7.40;64.12
51083;BME280;37131;42.694;23.350;2023-02-20T05:58:57;96051.16;;;7.40;64.58
51083;BME280;37131;42.694;23.350;2023-02-20T06:01:28;96046.22;;;7.45;64.30
51083;BME280;37131;42.694;23.350;2023-02-20T06:03:54;96050.16;;;7.41;64.27
51083;BME280;37131;42.694;23.350;2023-02-20T06:06:19;96053.72;;;7.54;64.23
51083;BME280;37131;42.694;23.350;2023-02-20T06:08:45;96047.47;;;7.70;63.30
51083;BME280;37131;42.694;23.350;2023-02-20T06:11:12;95993.84;;;7.34;63.27
51083;BME280;37131;42.694;23.350;2023-02-20T06:13:42;96059.44;;;7.71;62.66
51083;BME280;37131;42.694;23.350;2023-02-20T06:16:08;96067.44;;;7.70;62.14
51083;BME280;37131;42.694;23.350;2023-02-20T06:18:38;96065.59;;;7.85;60.55
51083;BME280;37131;42.694;23.350;2023-02-20T06:21:06;96061.31;;;7.99;59.81
51083;BME280;37131;42.694;23.350;2023-02-20T06:23:31;96075.75;;;8.08;59.19
51083;BME280;37131;42.694;23.350;2023-02-20T06:25:57;96073.41;;;8.14;57.86
51083;BME280;37131;42.694;23.350;2023-02-20T06:28:22;96077.97;;;8.12;56.91
51083;BME280;37131;42.694;23.350;2023-02-20T06:30:48;96084.13;;;8.32;56.76
51083;BME280;37131;42.694;23.350;2023-02-20T06:33:14;96082.69;;;8.30;56.05
51083;BME280;37131;42.694;23.350;2023-02-20T06:35:40;96096.59;;;8.15;56.70
51083;BME280;37131;42.694;23.350;2023-02-20T06:38:05;96072.69;;;8.26;55.80
51083;BME280;37131;42.694;23.350;2023-02-20T06:40:31;96073.53;;;8.34;55.66
51083;BME280;37131;42.694;23.350;2023-02-20T06:42:56;96079.00;;;8.39;55.76
51083;BME280;37131;42.694;23.350;2023-02-20T06:45:21;96082.28;;;8.26;55.23
51083;BME280;37131;42.694;23.350;2023-02-20T06:47:47;96074.78;;;8.38;55.51
51083;BME280;37131;42.694;23.350;2023-02-20T06:50:12;96085.56;;;8.13;55.76
51083;BME280;37131;42.694;23.350;2023-02-20T06:52:37;96062.38;;;8.12;55.88
51083;BME280;37131;42.694;23.350;2023-02-20T06:55:03;96077.00;;;8.13;56.23
51083;BME280;37131;42.694;23.350;2023-02-20T06:57:31;96084.66;;;8.21;55.27
51083;BME280;37131;42.694;23.350;2023-02-20T06:59:57;96078.34;;;8.08;55.71
51083;BME280;37131;42.694;23.350;2023-02-20T07:02:22;96091.16;;;8.10;55.57
51083;BME280;37131;42.694;23.350;2023-02-20T07:04:48;96077.59;;;8.15;55.09
51083;BME280;37131;42.694;23.350;2023-02-20T07:07:14;96085.44;;;8.21;55.01
51083;BME280;37131;42.694;23.350;2023-02-20T07:09:39;96085.69;;;8.26;54.37
51083;BME280;37131;42.694;23.350;2023-02-20T07:12:05;96088.75;;;8.37;54.56
51083;BME280;37131;42.694;23.350;2023-02-20T07:14:30;96078.75;;;8.34;54.16
51083;BME280;37131;42.694;23.350;2023-02-20T07:16:56;96080.09;;;8.30;54.18
51083;BME280;37131;42.694;23.350;2023-02-20T07:19:21;96008.97;;;8.02;53.23
51083;BME280;37131;42.694;23.350;2023-02-20T07:21:46;96089.81;;;8.71;52.47
51083;BME280;37131;42.694;23.350;2023-02-20T07:24:12;96098.94;;;8.60;52.31
51083;BME280;37131;42.694;23.350;2023-02-20T07:26:37;96097.22;;;8.74;51.33
51083;BME280;37131;42.694;23.350;2023-02-20T07:29:05;96093.41;;;8.70;50.84
51083;BME280;37131;42.694;23.350;2023-02-20T07:31:30;96091.09;;;8.82;50.42
51083;BME280;37131;42.694;23.350;2023-02-20T07:33:56;96107.47;;;8.82;50.13
51083;BME280;37131;42.694;23.350;2023-02-20T07:36:22;96113.94;;;8.93;49.86
51083;BME280;37131;42.694;23.350;2023-02-20T07:38:59;96105.31;;;8.57;49.71
51083;BME280;37131;42.694;23.350;2023-02-20T07:41:27;96110.22;;;8.74;49.81
51083;BME280;37131;42.694;23.350;2023-02-20T07:43:56;96114.25;;;8.76;48.90
51083;BME280;37131;42.694;23.350;2023-02-20T07:46:22;96115.38;;;8.67;48.94
51083;BME280;37131;42.694;23.350;2023-02-20T07:48:47;96118.22;;;8.72;48.57
51083;BME280;37131;42.694;23.350;2023-02-20T07:51:13;96129.00;;;8.69;48.31
51083;BME280;37131;42.694;23.350;2023-02-20T07:53:38;96132.41;;;8.70;47.93
51083;BME280;37131;42.694;23.350;2023-02-20T07:56:05;96139.56;;;8.68;48.30
51083;BME280;37131;42.694;23.350;2023-02-20T07:58:30;96135.16;;;8.62;48.43
51083;BME280;37131;42.694;23.350;2023-02-20T08:00:56;96147.16;;;8.63;48.29
51083;BME280;37131;42.694;23.350;2023-02-20T08:03:21;96148.13;;;8.62;49.08
51083;BME280;37131;42.694;23.350;2023-02-20T08:05:46;96159.22;;;8.49;48.29
51083;BME280;37131;42.694;23.350;2023-02-20T08:08:12;96147.97;;;8.41;48.26
51083;BME280;37131;42.694;23.350;2023-02-20T08:10:38;96148.44;;;8.45;48.12
51083;BME280;37131;42.694;23.350;2023-02-20T08:13:04;96142.63;;;8.71;48.19
51083;BME280;37131;42.694;23.350;2023-02-20T08:15:29;96142.66;;;8.78;47.51
51083;BME280;37131;42.694;23.350;2023-02-20T08:17:55;96112.41;;;8.70;46.65
51083;BME280;37131;42.694;23.350;2023-02-20T08:20:21;96150.41;;;9.06;46.32
51083;BME280;37131;42.694;23.350;2023-02-20T08:22:47;96153.66;;;9.08;46.23
51083;BME280;37131;42.694;23.350;2023-02-20T08:25:14;96153.72;;;9.22;46.06
51083;BME280;37131;42.694;23.350;2023-02-20T08:27:41;96154.56;;;9.29;45.64
51083;BME280;37131;42.694;23.350;2023-02-20T08:30:11;96136.53;;;9.34;44.94
51083;BME280;37131;42.694;23.350;2023-02-20T08:32:38;96145.56;;;9.32;44.45
51083;BME280;37131;42.694;23.350;2023-02-20T08:35:03;96104.81;;;9.04;44.92
51083;BME280;37131;42.694;23.350;2023-02-20T08:37:29;96139.19;;;9.41;44.64
51083;BME280;37131;42.694;23.350;2023-02-20T08:39:54;96146.22;;;9.47;44.22
51083;BME280;37131;42.694;23.350;2023-02-20T08:42:19;96130.00;;;9.45;44.28
51083;BME280;37131;42.694;23.350;2023-02-20T08:44:45;96143.00;;;9.45;43.66
51083;BME280;37131;42.694;23.350;2023-02-20T08:47:10;96150.00;;;9.38;44.39
51083;BME280;37131;42.694;23.350;2023-02-20T08:49:36;96147.00;;;9.47;44.19
51083;BME280;37131;42.694;23.350;2023-02-20T08:52:01;96144.34;;;9.27;44.46
51083;BME280;37131;42.694;23.350;2023-02-20T08:54:29;96167.97;;;9.33;43.22
51083;BME280;37131;42.694;23.350;2023-02-20T08:56:55;96151.22;;;9.48;43.61
51083;BME280;37131;42.694;23.350;2023-02-20T08:59:20;96148.78;;;9.40;43.61
51083;BME280;37131;42.694;23.350;2023-02-20T09:01:46;96161.44;;;9.50;42.91
51083;BME280;37131;42.694;23.350;2023-02-20T09:04:11;96142.66;;;9.68;42.67
51083;BME280;37131;42.694;23.350;2023-02-20T09:06:36;96143.88;;;9.72;43.42
51083;BME280;37131;42.694;23.350;2023-02-20T09:09:02;96143.09;;;9.72;42.44
51083;BME280;37131;42.694;23.350;2023-02-20T09:11:27;96129.84;;;9.66;42.17
51083;BME280;37131;42.694;23.350;2023-02-20T09:13:53;96147.72;;;9.83;42.55
51083;BME280;37131;42.694;23.350;2023-02-20T09:16:23;96131.91;;;9.91;42.16
51083;BME280;37131;42.694;23.350;2023-02-20T09:18:49;96134.88;;;9.75;42.50
51083;BME280;37131;42.694;23.350;2023-02-20T09:21:17;96139.88;;;9.70;42.67
51083;BME280;37131;42.694;23.350;2023-02-20T09:23:43;96123.28;;;9.84;42.84
51083;BME280;37131;42.694;23.350;2023-02-20T09:26:09;96130.31;;;10.04;42.79
51083;BME280;37131;42.694;23.350;2023-02-20T09:28:35;96135.34;;;10.05;41.89
51083;BME280;37131;42.694;23.350;2023-02-20T09:31:00;96118.94;;;10.11;42.43
51083;BME280;37131;42.694;23.350;2023-02-20T09:33:27;96132.16;;;10.10;42.42
51083;BME280;37131;42.694;23.350;2023-02-20T09:35:53;96121.53;;;10.11;42.16
51083;BME280;37131;42.694;23.350;2023-02-20T09:38:22;96086.03;;;9.83;41.84
51083;BME280;37131;42.694;23.350;2023-02-20T09:40:53;96107.50;;;10.06;42.74
51083;BME280;37131;42.694;23.350;2023-02-20T09:43:48;96119.91;;;10.30;42.44
51083;BME280;37131;42.694;23.350;2023-02-20T09:46:22;96079.22;;;10.09;42.34
51083;BME280;37131;42.694;23.350;2023-02-20T09:49:09;96109.94;;;10.47;42.23
51083;BME280;37131;42.694;23.350;2023-02-20T09:51:39;96114.13;;;10.55;42.14
51083;BME280;37131;42.694;23.350;2023-02-20T09:54:13;96112.72;;;10.59;42.66
51083;BME280;37131;42.694;23.350;2023-02-20T09:56:48;96117.13;;;10.72;42.00
51083;BME280;37131;42.694;23.350;2023-02-20T09:59:37;96111.31;;;10.77;40.66
51083;BME280;37131;42.694;23.350;2023-02-20T10:02:10;96049.38;;;10.39;40.75
51083;BME280;37131;42.694;23.350;2023-02-20T10:04:44;96116.69;;;10.88;40.87
51083;BME280;37131;42.694;23.350;2023-02-20T10:07:35;96118.47;;;11.01;40.74
51083;BME280;37131;42.694;23.350;2023-02-20T10:10:27;96118.91;;;10.92;40.82
51083;BME280;37131;42.694;23.350;2023-02-20T10:15:58;96099.28;;;11.34;39.14
51083;BME280;37131;42.694;23.350;2023-02-20T10:24:00;96017.09;;;11.05;38.76
51083;BME280;37131;42.694;23.350;2023-02-20T10:26:31;96096.06;;;11.39;38.27
51083;BME280;37131;42.694;23.350;2023-02-20T10:29:22;96091.97;;;11.50;38.49
51083;BME280;37131;42.694;23.350;2023-02-20T10:32:02;96083.97;;;11.83;37.72
51083;BME280;37131;42.694;23.350;2023-02-20T10:34:34;96076.22;;;11.63;37.64
51083;BME280;37131;42.694;23.350;2023-02-20T10:37:07;96070.00;;;11.26;37.68
51083;BME280;37131;42.694;23.350;2023-02-20T10:39:38;96079.94;;;11.49;36.88
51083;BME280;37131;42.694;23.350;2023-02-20T10:42:35;96085.41;;;11.40;37.85
51083;BME280;37131;42.694;23.350;2023-02-20T10:45:10;96081.28;;;11.58;37.61
51083;BME280;37131;42.694;23.350;2023-02-20T10:47:48;96092.00;;;11.82;37.22
51083;BME280;37131;42.694;23.350;2023-02-20T10:52:50;96081.72;;;11.87;36.19
51083;BME280;37131;42.694;23.350;2023-02-20T10:55:44;96071.91;;;12.14;36.62
51083;BME280;37131;42.694;23.350;2023-02-20T10:58:28;96078.66;;;11.97;36.37
51083;BME280;37131;42.694;23.350;2023-02-20T11:00:59;96084.31;;;12.25;36.33
51083;BME280;37131;42.694;23.350;2023-02-20T11:03:53;96081.94;;;12.17;36.62
51083;BME280;37131;42.694;23.350;2023-02-20T11:06:23;96083.75;;;12.17;35.61
51083;BME280;37131;42.694;23.350;2023-02-20T11:08:49;96060.78;;;12.25;36.38
51083;BME280;37131;42.694;23.350;2023-02-20T11:11:21;96039.50;;;12.40;36.13
51083;BME280;37131;42.694;23.350;2023-02-20T11:13:47;96051.56;;;12.41;36.38
51083;BME280;37131;42.694;23.350;2023-02-20T11:16:29;96060.63;;;12.64;36.26
51083;BME280;37131;42.694;23.350;2023-02-20T11:19:03;96059.53;;;12.72;36.49
51083;BME280;37131;42.694;23.350;2023-02-20T11:21:36;96043.78;;;12.35;37.23
51083;BME280;37131;42.694;23.350;2023-02-20T11:26:42;96033.78;;;12.50;36.82
51083;BME280;37131;42.694;23.350;2023-02-20T11:29:15;96029.88;;;12.78;36.15
51083;BME280;37131;42.694;23.350;2023-02-20T11:31:43;96046.28;;;12.67;36.36
51083;BME280;37131;42.694;23.350;2023-02-20T11:34:28;96042.56;;;12.56;36.23
51083;BME280;37131;42.694;23.350;2023-02-20T11:37:04;96039.03;;;12.69;36.25
51083;BME280;37131;42.694;23.350;2023-02-20T11:39:32;96033.00;;;13.05;35.92
51083;BME280;37131;42.694;23.350;2023-02-20T11:42:33;96034.72;;;12.93;36.12
51083;BME280;37131;42.694;23.350;2023-02-20T11:45:14;96021.53;;;13.18;35.16
51083;BME280;37131;42.694;23.350;2023-02-20T11:47:40;96044.31;;;12.99;35.37
51083;BME280;37131;42.694;23.350;2023-02-20T11:50:18;96025.88;;;13.12;35.22
51083;BME280;37131;42.694;23.350;2023-02-20T11:52:59;96031.22;;;13.36;35.26
51083;BME280;37131;42.694;23.350;2023-02-20T11:55:25;96027.13;;;13.40;34.88
51083;BME280;37131;42.694;23.350;2023-02-20T11:57:51;96020.56;;;13.49;34.38
51083;BME280;37131;42.694;23.350;2023-02-20T12:00:21;96032.44;;;13.33;34.62
51083;BME280;37131;42.694;23.350;2023-02-20T12:02:49;96023.81;;;13.45;34.34
51083;BME280;37131;42.694;23.350;2023-02-20T12:05:15;96009.56;;;13.83;33.45
51083;BME280;37131;42.694;23.350;2023-02-20T12:07:42;96018.63;;;13.99;33.10
51083;BME280;37131;42.694;23.350;2023-02-20T12:10:15;96019.53;;;14.04;33.02
51083;BME280;37131;42.694;23.350;2023-02-20T12:12:44;96012.38;;;14.35;32.80
51083;BME280;37131;42.694;23.350;2023-02-20T12:15:17;95999.09;;;15.18;32.02
51083;BME280;37131;42.694;23.350;2023-02-20T12:20:19;96003.91;;;14.81;31.37
51083;BME280;37131;42.694;23.350;2023-02-20T12:26:36;96017.25;;;14.55;32.01
51083;BME280;37131;42.694;23.350;2023-02-20T12:28:44;96020.00;;;14.61;32.03
51083;BME280;37131;42.694;23.350;2023-02-20T12:31:44;96027.38;;;14.99;31.59
51083;BME280;37131;42.694;23.350;2023-02-20T12:34:28;96008.94;;;14.82;31.67
51083;BME280;37131;42.694;23.350;2023-02-20T12:42:34;96033.09;;;15.37;31.05
51083;BME280;37131;42.694;23.350;2023-02-20T12:47:40;96001.19;;;15.62;30.43
51083;BME280;37131;42.694;23.350;2023-02-20T12:55:39;95998.59;;;16.30;29.79
51083;BME280;37131;42.694;23.350;2023-02-20T13:01:07;95986.38;;;17.29;28.25
51083;BME280;37131;42.694;23.350;2023-02-20T13:06:56;95982.94;;;18.21;27.69
51083;BME280;37131;42.694;23.350;2023-02-20T13:09:34;96011.78;;;16.91;28.25
51083;BME280;37131;42.694;23.350;2023-02-20T13:12:09;96013.50;;;16.24;29.96
51083;BME280;37131;42.694;23.350;2023-02-20T13:17:28;96025.69;;;15.22;30.69
51083;BME280;37131;42.694;23.350;2023-02-20T13:25:44;96031.22;;;15.08;31.81
51083;BME280;37131;42.694;23.350;2023-02-20T13:30:44;96002.19;;;14.63;32.22
51083;BME280;37131;42.694;23.350;2023-02-20T13:33:21;96031.25;;;13.90;33.14
51083;BME280;37131;42.694;23.350;2023-02-20T13:35:55;96027.19;;;14.42;32.79
51083;BME280;37131;42.694;23.350;2023-02-20T13:38:23;96029.94;;;14.59;32.51
51083;BME280;37131;42.694;23.350;2023-02-20T13:45:47;96046.88;;;13.97;33.80
51083;BME280;37131;42.694;23.350;2023-02-20T13:54:21;96050.09;;;14.34;33.41
51083;BME280;37131;42.694;23.350;2023-02-20T13:56:56;96039.28;;;14.43;33.00
51083;BME280;37131;42.694;23.350;2023-02-20T13:59:24;96047.16;;;14.31;33.29
51083;BME280;37131;42.694;23.350;2023-02-20T14:04:20;96035.03;;;14.06;33.98
51083;BME280;37131;42.694;23.350;2023-02-20T14:06:50;96033.78;;;14.09;33.77
51083;BME280;37131;42.694;23.350;2023-02-20T14:09:20;96040.47;;;13.20;35.14
51083;BME280;37131;42.694;23.350;2023-02-20T14:11:48;96045.50;;;12.85;36.13
51083;BME280;37131;42.694;23.350;2023-02-20T14:14:30;96053.34;;;12.66;36.31
51083;BME280;37131;42.694;23.350;2023-02-20T14:17:10;96047.91;;;12.24;36.98
51083;BME280;37131;42.694;23.350;2023-02-20T14:19:41;96042.25;;;12.27;37.19
51083;BME280;37131;42.694;23.350;2023-02-20T14:24:45;96060.97;;;12.24;37.22
51083;BME280;37131;42.694;23.350;2023-02-20T14:27:29;96067.69;;;12.13;38.00
51083;BME280;37131;42.694;23.350;2023-02-20T14:30:06;96071.22;;;12.00;38.02
51083;BME280;37131;42.694;23.350;2023-02-20T14:32:34;96069.19;;;12.02;38.20
51083;BME280;37131;42.694;23.350;2023-02-20T14:40:34;96072.81;;;11.63;39.47
51083;BME280;37131;42.694;23.350;2023-02-20T14:43:02;96069.72;;;11.79;40.02
51083;BME280;37131;42.694;23.350;2023-02-20T14:45:28;96084.69;;;11.65;39.57
51083;BME280;37131;42.694;23.350;2023-02-20T14:47:59;96078.75;;;11.45;40.16
51083;BME280;37131;42.694;23.350;2023-02-20T14:50:34;96079.25;;;11.28;40.45
51083;BME280;37131;42.694;23.350;2023-02-20T14:53:15;96071.75;;;11.38;40.23
51083;BME280;37131;42.694;23.350;2023-02-20T14:55:41;96073.41;;;11.26;40.73